sensor_id;sensor_type;location;lat;lon;timestamp;pressure;altitude;pressure_sealevel;temperature;humidity
79577;BME280;69045;48.136;11.386;2023-04-24T00:00:25;94436.44;;;14.71;69.17
79577;BME280;69045;48.136;11.386;2023-04-24T00:02:54;94436.41;;;14.56;69.56
79577;BME280;69045;48.136;11.386;2023-04-24T00:05:24;94433.53;;;14.52;70.06
79577;BME280;69045;48.136;11.386;2023-04-24T00:07:54;94438.75;;;14.32;71.13
79577;BME280;69045;48.136;11.386;2023-04-24T00:10:22;94433.44;;;14.11;71.92
79577;BME280;69045;48.136;11.386;2023-04-24T00:12:50;94437.13;;;14.15;71.74
79577;BME280;69045;48.136;11.386;2023-04-24T00:15:18;94437.41;;;14.19;71.37
79577;BME280;69045;48.136;11.386;2023-04-24T00:17:47;94431.88;;;14.20;71.45
79577;BME280;69045;48.136;11.386;2023-04-24T00:20:15;94436.63;;;14.24;71.53
79577;BME280;69045;48.136;11.386;2023-04-24T00:22:43;94428.72;;;14.29;71.58
79577;BME280;69045;48.136;11.386;2023-04-24T00:25:13;94427.41;;;14.31;70.96
79577;BME280;69045;48.136;11.386;2023-04-24T00:27:41;94433.97;;;14.29;70.16
79577;BME280;69045;48.136;11.386;2023-04-24T00:30:10;94422.91;;;14.27;69.99
79577;BME280;69045;48.136;11.386;2023-04-24T00:32:38;94428.72;;;14.29;70.01
79577;BME280;69045;48.136;11.386;2023-04-24T00:35:08;94425.56;;;14.27;69.36
79577;BME280;69045;48.136;11.386;2023-04-24T00:37:38;94432.66;;;14.26;69.81
79577;BME280;69045;48.136;11.386;2023-04-24T00:40:07;94422.13;;;14.26;69.13
79577;BME280;69045;48.136;11.386;2023-04-24T00:42:37;94431.09;;;14.25;68.77
79577;BME280;69045;48.136;11.386;2023-04-24T00:45:07;94430.03;;;14.26;68.90
79577;BME280;69045;48.136;11.386;2023-04-24T00:47:36;94427.41;;;14.26;68.46
79577;BME280;69045;48.136;11.386;2023-04-24T00:50:06;94431.09;;;14.25;68.58
79577;BME280;69045;48.136;11.386;2023-04-24T00:52:34;94427.41;;;14.26;68.29
79577;BME280;69045;48.136;11.386;2023-04-24T00:55:04;94428.19;;;14.27;67.48
79577;BME280;69045;48.136;11.386;2023-04-24T00:57:34;94423.19;;;14.25;67.26
79577;BME280;69045;48.136;11.386;2023-04-24T01:00:11;94419.50;;;14.26;67.22
79577;BME280;69045;48.136;11.386;2023-04-24T01:02:41;94415.81;;;14.27;66.39
79577;BME280;69045;48.136;11.386;2023-04-24T01:05:13;94414.75;;;14.23;66.47
79577;BME280;69045;48.136;11.386;2023-04-24T01:07:44;94416.59;;;14.23;66.41
79577;BME280;69045;48.136;11.386;2023-04-24T01:10:15;94416.31;;;14.19;66.78
79577;BME280;69045;48.136;11.386;2023-04-24T01:12:45;94416.59;;;14.23;66.29
79577;BME280;69045;48.136;11.386;2023-04-24T01:15:15;94415.53;;;14.18;66.23
79577;BME280;69045;48.136;11.386;2023-04-24T01:17:43;94416.84;;;14.16;66.25
79577;BME280;69045;48.136;11.386;2023-04-24T01:20:13;94410.25;;;14.13;66.26
79577;BME280;69045;48.136;11.386;2023-04-24T01:22:44;94414.72;;;14.13;66.31
79577;BME280;69045;48.136;11.386;2023-04-24T01:25:14;94407.13;;;14.16;65.93
79577;BME280;69045;48.136;11.386;2023-04-24T01:27:43;94402.34;;;14.13;65.71
79577;BME280;69045;48.136;11.386;2023-04-24T01:30:12;94404.22;;;14.18;65.72
79577;BME280;69045;48.136;11.386;2023-04-24T01:32:42;94401.31;;;14.19;65.98
79577;BME280;69045;48.136;11.386;2023-04-24T01:35:11;94405.25;;;14.22;65.67
79577;BME280;69045;48.136;11.386;2023-04-24T01:37:40;94401.03;;;14.21;65.04
79577;BME280;69045;48.136;11.386;2023-04-24T01:40:10;94404.22;;;14.18;65.55
79577;BME280;69045;48.136;11.386;2023-04-24T01:42:40;94400.75;;;14.07;65.24
79577;BME280;69045;48.136;11.386;2023-04-24T01:45:11;94397.88;;;14.04;65.77
79577;BME280;69045;48.136;11.386;2023-04-24T01:47:40;94396.28;;;14.03;65.92
79577;BME280;69045;48.136;11.386;2023-04-24T01:50:09;94394.94;;;14.00;66.02
79577;BME280;69045;48.136;11.386;2023-04-24T01:52:38;94397.06;;;13.98;66.20
79577;BME280;69045;48.136;11.386;2023-04-24T01:55:10;94399.69;;;13.93;66.07
79577;BME280;69045;48.136;11.386;2023-04-24T01:57:39;94404.69;;;13.89;65.94
79577;BME280;69045;48.136;11.386;2023-04-24T02:00:09;94400.19;;;13.85;66.53
79577;BME280;69045;48.136;11.386;2023-04-24T02:02:41;94406.53;;;13.89;65.94
79577;BME280;69045;48.136;11.386;2023-04-24T02:05:13;94404.41;;;13.91;65.69
79577;BME280;69045;48.136;11.386;2023-04-24T02:07:41;94410.19;;;13.88;65.34
79577;BME280;69045;48.136;11.386;2023-04-24T02:10:11;94401.25;;;13.84;65.49
79577;BME280;69045;48.136;11.386;2023-04-24T02:12:42;94406.78;;;13.82;65.51
79577;BME280;69045;48.136;11.386;2023-04-24T02:15:11;94399.66;;;13.83;65.13
79577;BME280;69045;48.136;11.386;2023-04-24T02:17:39;94403.59;;;13.85;65.52
79577;BME280;69045;48.136;11.386;2023-04-24T02:20:07;94399.41;;;13.84;65.23
79577;BME280;69045;48.136;11.386;2023-04-24T02:22:37;94398.59;;;13.84;65.85
79577;BME280;69045;48.136;11.386;2023-04-24T02:25:06;94405.44;;;13.85;65.36
79577;BME280;69045;48.136;11.386;2023-04-24T02:27:36;94403.34;;;13.87;65.15
79577;BME280;69045;48.136;11.386;2023-04-24T02:30:06;94405.19;;;13.86;65.50
79577;BME280;69045;48.136;11.386;2023-04-24T02:32:34;94404.69;;;13.89;65.42
79577;BME280;69045;48.136;11.386;2023-04-24T02:35:03;94399.91;;;13.86;65.43
79577;BME280;69045;48.136;11.386;2023-04-24T02:37:32;94403.34;;;13.82;65.69
79577;BME280;69045;48.136;11.386;2023-04-24T02:40:01;94405.44;;;13.80;66.13
79577;BME280;69045;48.136;11.386;2023-04-24T02:42:29;94404.94;;;13.83;65.81
79577;BME280;69045;48.136;11.386;2023-04-24T02:44:59;94402.53;;;13.81;65.86
79577;BME280;69045;48.136;11.386;2023-04-24T02:47:27;94411.47;;;13.80;65.92
79577;BME280;69045;48.136;11.386;2023-04-24T02:49:56;94409.41;;;13.82;65.86
79577;BME280;69045;48.136;11.386;2023-04-24T02:52:24;94407.56;;;13.83;66.11
79577;BME280;69045;48.136;11.386;2023-04-24T02:54:52;94415.44;;;13.88;65.90
79577;BME280;69045;48.136;11.386;2023-04-24T02:57:21;94405.97;;;13.87;66.54
79577;BME280;69045;48.136;11.386;2023-04-24T02:59:49;94407.28;;;13.84;66.46
79577;BME280;69045;48.136;11.386;2023-04-24T03:02:19;94415.75;;;13.91;66.43
79577;BME280;69045;48.136;11.386;2023-04-24T03:04:48;94413.34;;;13.85;66.62
79577;BME280;69045;48.136;11.386;2023-04-24T03:07:16;94405.97;;;13.87;66.77
79577;BME280;69045;48.136;11.386;2023-04-24T03:09:47;94405.72;;;13.83;66.63
79577;BME280;69045;48.136;11.386;2023-04-24T03:12:15;94417.00;;;13.79;67.24
79577;BME280;69045;48.136;11.386;2023-04-24T03:14:44;94403.06;;;13.78;67.17
79577;BME280;69045;48.136;11.386;2023-04-24T03:17:12;94409.91;;;13.79;67.41
79577;BME280;69045;48.136;11.386;2023-04-24T03:19:42;94411.72;;;13.74;67.49
79577;BME280;69045;48.136;11.386;2023-04-24T03:22:12;94410.44;;;13.76;67.80
79577;BME280;69045;48.136;11.386;2023-04-24T03:24:41;94405.16;;;13.76;68.06
79577;BME280;69045;48.136;11.386;2023-04-24T03:27:10;94401.72;;;13.71;67.80
79577;BME280;69045;48.136;11.386;2023-04-24T03:30:00;94394.06;;;13.64;68.62
79577;BME280;69045;48.136;11.386;2023-04-24T03:32:44;94404.06;;;13.62;69.03
79577;BME280;69045;48.136;11.386;2023-04-24T03:35:17;94406.94;;;13.55;69.18
79577;BME280;69045;48.136;11.386;2023-04-24T03:37:45;94406.38;;;13.53;69.90
79577;BME280;69045;48.136;11.386;2023-04-24T03:40:40;94400.56;;;13.46;69.55
79577;BME280;69045;48.136;11.386;2023-04-24T03:43:28;94405.34;;;13.49;69.97
79577;BME280;69045;48.136;11.386;2023-04-24T03:45:59;94402.94;;;13.48;70.04
79577;BME280;69045;48.136;11.386;2023-04-24T03:48:29;94405.56;;;13.48;70.28
79577;BME280;69045;48.136;11.386;2023-04-24T03:50:59;94402.16;;;13.47;70.27
79577;BME280;69045;48.136;11.386;2023-04-24T03:53:29;94399.25;;;13.44;69.87
79577;BME280;69045;48.136;11.386;2023-04-24T03:55:58;94396.09;;;13.42;70.39
79577;BME280;69045;48.136;11.386;2023-04-24T03:58:27;94402.16;;;13.42;70.26
79577;BME280;69045;48.136;11.386;2023-04-24T04:00:56;94397.91;;;13.41;70.24
79577;BME280;69045;48.136;11.386;2023-04-24T04:03:42;94399.75;;;13.35;70.32
79577;BME280;69045;48.136;11.386;2023-04-24T04:06:12;94396.84;;;13.37;70.42
79577;BME280;69045;48.136;11.386;2023-04-24T04:08:40;94397.13;;;13.41;70.54
79577;BME280;69045;48.136;11.386;2023-04-24T04:11:09;94390.56;;;13.43;70.23
79577;BME280;69045;48.136;11.386;2023-04-24T04:13:37;94397.91;;;13.41;69.89
79577;BME280;69045;48.136;11.386;2023-04-24T04:16:05;94391.84;;;13.41;69.77
79577;BME280;69045;48.136;11.386;2023-04-24T04:18:34;94394.50;;;13.46;69.64
79577;BME280;69045;48.136;11.386;2023-04-24T04:21:04;94395.88;;;13.48;69.40
79577;BME280;69045;48.136;11.386;2023-04-24T04:23:34;94398.19;;;13.45;68.99
79577;BME280;69045;48.136;11.386;2023-04-24T04:26:14;94399.78;;;13.46;68.95
79577;BME280;69045;48.136;11.386;2023-04-24T04:28:59;94395.56;;;13.45;68.69
79577;BME280;69045;48.136;11.386;2023-04-24T04:31:29;94404.25;;;13.45;68.85
79577;BME280;69045;48.136;11.386;2023-04-24T04:34:02;94402.94;;;13.48;68.80
79577;BME280;69045;48.136;11.386;2023-04-24T04:36:32;94410.81;;;13.48;68.92
79577;BME280;69045;48.136;11.386;2023-04-24T04:39:24;94409.28;;;13.52;68.31
79577;BME280;69045;48.136;11.386;2023-04-24T04:41:59;94416.91;;;13.53;68.59
79577;BME280;69045;48.136;11.386;2023-04-24T04:44:34;94416.13;;;13.53;68.71
79577;BME280;69045;48.136;11.386;2023-04-24T04:47:06;94420.59;;;13.52;68.31
79577;BME280;69045;48.136;11.386;2023-04-24T04:49:37;94415.34;;;13.52;68.28
79577;BME280;69045;48.136;11.386;2023-04-24T04:52:13;94416.38;;;13.51;68.31
79577;BME280;69045;48.136;11.386;2023-04-24T04:54:43;94422.69;;;13.50;68.36
79577;BME280;69045;48.136;11.386;2023-04-24T04:57:11;94428.22;;;13.49;67.78
79577;BME280;69045;48.136;11.386;2023-04-24T04:59:40;94423.75;;;13.49;67.64
79577;BME280;69045;48.136;11.386;2023-04-24T05:02:14;94427.66;;;13.47;67.44
79577;BME280;69045;48.136;11.386;2023-04-24T05:04:43;94427.44;;;13.48;67.56
79577;BME280;69045;48.136;11.386;2023-04-24T05:07:12;94428.47;;;13.47;67.20
79577;BME280;69045;48.136;11.386;2023-04-24T05:09:47;94432.44;;;13.50;67.61
79577;BME280;69045;48.136;11.386;2023-04-24T05:12:16;94437.97;;;13.53;67.11
79577;BME280;69045;48.136;11.386;2023-04-24T05:14:50;94439.53;;;13.54;66.92
79577;BME280;69045;48.136;11.386;2023-04-24T05:17:18;94438.00;;;13.58;67.00
79577;BME280;69045;48.136;11.386;2023-04-24T05:19:46;94441.16;;;13.60;66.89
79577;BME280;69045;48.136;11.386;2023-04-24T05:22:15;94444.84;;;13.59;66.93
79577;BME280;69045;48.136;11.386;2023-04-24T05:24:51;94441.16;;;13.60;66.46
79577;BME280;69045;48.136;11.386;2023-04-24T05:27:33;94441.16;;;13.60;66.19
79577;BME280;69045;48.136;11.386;2023-04-24T05:30:08;94448.00;;;13.56;66.25
79577;BME280;69045;48.136;11.386;2023-04-24T05:32:37;94450.06;;;13.54;66.43
79577;BME280;69045;48.136;11.386;2023-04-24T05:35:06;94440.63;;;13.58;66.46
79577;BME280;69045;48.136;11.386;2023-04-24T05:37:35;94443.53;;;13.62;65.91
79577;BME280;69045;48.136;11.386;2023-04-24T05:40:06;94452.47;;;13.61;65.84
79577;BME280;69045;48.136;11.386;2023-04-24T05:42:35;94441.16;;;13.60;66.19
79577;BME280;69045;48.136;11.386;2023-04-24T05:45:04;94445.34;;;13.61;65.69
79577;BME280;69045;48.136;11.386;2023-04-24T05:47:34;94451.97;;;13.64;65.82
79577;BME280;69045;48.136;11.386;2023-04-24T05:50:03;94454.34;;;13.65;65.69
79577;BME280;69045;48.136;11.386;2023-04-24T05:52:31;94447.75;;;13.68;65.40
79577;BME280;69045;48.136;11.386;2023-04-24T05:55:05;94450.69;;;13.72;65.74
79577;BME280;69045;48.136;11.386;2023-04-24T05:57:37;94451.75;;;13.76;65.52
79577;BME280;69045;48.136;11.386;2023-04-24T06:00:07;94449.91;;;13.81;65.48
79577;BME280;69045;48.136;11.386;2023-04-24T06:02:44;94449.94;;;13.86;65.19
79577;BME280;69045;48.136;11.386;2023-04-24T06:05:13;94450.50;;;13.93;65.03
79577;BME280;69045;48.136;11.386;2023-04-24T06:07:42;94450.00;;;14.07;65.20
79577;BME280;69045;48.136;11.386;2023-04-24T06:10:13;94451.88;;;14.16;64.88
79577;BME280;69045;48.136;11.386;2023-04-24T06:12:43;94453.72;;;14.21;64.72
79577;BME280;69045;48.136;11.386;2023-04-24T06:15:16;94453.47;;;14.28;64.10
79577;BME280;69045;48.136;11.386;2023-04-24T06:17:57;94452.41;;;14.29;64.14
79577;BME280;69045;48.136;11.386;2023-04-24T06:20:26;94456.91;;;14.28;63.23
79577;BME280;69045;48.136;11.386;2023-04-24T06:22:55;94459.00;;;14.26;63.38
79577;BME280;69045;48.136;11.386;2023-04-24T06:25:26;94464.25;;;14.21;62.71
79577;BME280;69045;48.136;11.386;2023-04-24T06:27:54;94462.44;;;14.27;62.95
79577;BME280;69045;48.136;11.386;2023-04-24T06:30:23;94466.16;;;14.31;62.37
79577;BME280;69045;48.136;11.386;2023-04-24T06:32:52;94467.19;;;14.35;62.51
79577;BME280;69045;48.136;11.386;2023-04-24T06:35:22;94461.69;;;14.36;62.26
79577;BME280;69045;48.136;11.386;2023-04-24T06:37:51;94473.53;;;14.44;62.52
79577;BME280;69045;48.136;11.386;2023-04-24T06:40:19;94477.03;;;14.50;62.14
79577;BME280;69045;48.136;11.386;2023-04-24T06:42:49;94474.91;;;14.57;61.67
79577;BME280;69045;48.136;11.386;2023-04-24T06:45:18;94476.50;;;14.58;61.20
79577;BME280;69045;48.136;11.386;2023-04-24T06:47:47;94475.19;;;14.65;61.71
79577;BME280;69045;48.136;11.386;2023-04-24T06:50:15;94483.34;;;14.74;61.26
79577;BME280;69045;48.136;11.386;2023-04-24T06:52:45;94477.31;;;14.79;61.18
79577;BME280;69045;48.136;11.386;2023-04-24T06:55:13;94472.00;;;14.89;61.06
79577;BME280;69045;48.136;11.386;2023-04-24T06:57:43;94473.59;;;14.95;60.32
79577;BME280;69045;48.136;11.386;2023-04-24T07:00:15;94477.31;;;14.99;59.72
79577;BME280;69045;48.136;11.386;2023-04-24T07:02:43;94478.88;;;15.05;59.75
79577;BME280;69045;48.136;11.386;2023-04-24T07:05:11;94477.81;;;15.11;60.26
79577;BME280;69045;48.136;11.386;2023-04-24T07:07:42;94480.44;;;15.21;59.33
79577;BME280;69045;48.136;11.386;2023-04-24T07:10:11;94485.19;;;15.29;58.67
79577;BME280;69045;48.136;11.386;2023-04-24T07:12:40;94485.44;;;15.33;58.24
79577;BME280;69045;48.136;11.386;2023-04-24T07:15:09;94491.00;;;15.32;59.34
79577;BME280;69045;48.136;11.386;2023-04-24T07:17:39;94494.44;;;15.32;58.60
79577;BME280;69045;48.136;11.386;2023-04-24T07:20:10;94494.66;;;15.30;59.04
79577;BME280;69045;48.136;11.386;2023-04-24T07:22:39;94494.16;;;15.28;58.34
79577;BME280;69045;48.136;11.386;2023-04-24T07:25:08;94499.19;;;15.25;58.48
79577;BME280;69045;48.136;11.386;2023-04-24T07:27:36;94502.59;;;15.25;58.55
79577;BME280;69045;48.136;11.386;2023-04-24T07:30:05;94500.50;;;15.27;58.37
79577;BME280;69045;48.136;11.386;2023-04-24T07:32:34;94512.09;;;15.32;58.57
79577;BME280;69045;48.136;11.386;2023-04-24T07:35:05;94508.13;;;15.34;58.83
79577;BME280;69045;48.136;11.386;2023-04-24T07:37:33;94506.00;;;15.36;58.68
79577;BME280;69045;48.136;11.386;2023-04-24T07:40:02;94503.13;;;15.38;58.71
79577;BME280;69045;48.136;11.386;2023-04-24T07:42:31;94510.50;;;15.46;58.70
79577;BME280;69045;48.136;11.386;2023-04-24T07:45:01;94515.22;;;15.59;57.28
79577;BME280;69045;48.136;11.386;2023-04-24T07:47:30;94511.00;;;15.58;59.19
79577;BME280;69045;48.136;11.386;2023-04-24T07:49:59;94510.50;;;15.66;57.84
79577;BME280;69045;48.136;11.386;2023-04-24T07:52:29;94511.00;;;15.68;57.68
79577;BME280;69045;48.136;11.386;2023-04-24T07:54:58;94517.34;;;15.72;58.11
79577;BME280;69045;48.136;11.386;2023-04-24T07:57:27;94514.44;;;15.79;57.43
79577;BME280;69045;48.136;11.386;2023-04-24T07:59:55;94508.81;;;15.96;56.68
79577;BME280;69045;48.136;11.386;2023-04-24T08:02:23;94507.66;;;16.22;56.82
79577;BME280;69045;48.136;11.386;2023-04-24T08:04:53;94514.09;;;16.50;56.99
79577;BME280;69045;48.136;11.386;2023-04-24T08:07:25;94518.78;;;16.63;54.95
79577;BME280;69045;48.136;11.386;2023-04-24T08:09:54;94516.91;;;16.69;58.86
79577;BME280;69045;48.136;11.386;2023-04-24T08:12:22;94527.13;;;16.86;54.93
79577;BME280;69045;48.136;11.386;2023-04-24T08:14:51;94530.56;;;16.86;55.56
79577;BME280;69045;48.136;11.386;2023-04-24T08:17:19;94537.72;;;16.86;54.92
79577;BME280;69045;48.136;11.386;2023-04-24T08:19:47;94533.56;;;16.75;58.34
79577;BME280;69045;48.136;11.386;2023-04-24T08:22:15;94544.34;;;16.83;55.74
79577;BME280;69045;48.136;11.386;2023-04-24T08:24:43;94552.81;;;16.85;56.58
79577;BME280;69045;48.136;11.386;2023-04-24T08:27:13;94565.31;;;16.64;55.70
79577;BME280;69045;48.136;11.386;2023-04-24T08:29:41;94574.13;;;16.55;56.48
79577;BME280;69045;48.136;11.386;2023-04-24T08:32:10;94566.38;;;16.74;55.32
79577;BME280;69045;48.136;11.386;2023-04-24T08:34:38;94566.91;;;16.76;53.85
79577;BME280;69045;48.136;11.386;2023-04-24T08:37:07;94578.47;;;16.85;53.55
79577;BME280;69045;48.136;11.386;2023-04-24T08:39:35;94579.84;;;16.77;48.93
79577;BME280;69045;48.136;11.386;2023-04-24T08:42:04;94577.34;;;16.47;48.35
79577;BME280;69045;48.136;11.386;2023-04-24T08:44:36;94588.00;;;16.11;48.71
79577;BME280;69045;48.136;11.386;2023-04-24T08:47:07;94579.66;;;15.78;50.67
79577;BME280;69045;48.136;11.386;2023-04-24T08:49:36;94583.34;;;15.67;50.96
79577;BME280;69045;48.136;11.386;2023-04-24T08:52:05;94590.22;;;15.53;51.21
79577;BME280;69045;48.136;11.386;2023-04-24T08:54:34;94597.59;;;15.41;50.73
79577;BME280;69045;48.136;11.386;2023-04-24T08:57:03;94599.44;;;15.30;52.16
79577;BME280;69045;48.136;11.386;2023-04-24T08:59:32;94599.44;;;15.25;52.05
79577;BME280;69045;48.136;11.386;2023-04-24T09:02:03;94600.50;;;15.19;52.67
79577;BME280;69045;48.136;11.386;2023-04-24T09:04:33;94597.84;;;15.14;53.33
79577;BME280;69045;48.136;11.386;2023-04-24T09:07:06;94602.84;;;15.10;54.00
79577;BME280;69045;48.136;11.386;2023-04-24T09:09:34;94594.94;;;15.10;52.77
79577;BME280;69045;48.136;11.386;2023-04-24T09:12:03;94599.69;;;15.08;53.32
79577;BME280;69045;48.136;11.386;2023-04-24T09:14:32;94591.25;;;15.11;52.65
79577;BME280;69045;48.136;11.386;2023-04-24T09:17:04;94593.34;;;15.09;53.33
79577;BME280;69045;48.136;11.386;2023-04-24T09:19:33;94591.50;;;15.10;53.83
79577;BME280;69045;48.136;11.386;2023-04-24T09:22:04;94597.31;;;15.12;52.69
79577;BME280;69045;48.136;11.386;2023-04-24T09:24:33;94596.28;;;15.18;52.51
79577;BME280;69045;48.136;11.386;2023-04-24T09:27:02;94592.31;;;15.30;52.28
79577;BME280;69045;48.136;11.386;2023-04-24T09:29:30;94599.44;;;15.40;51.73
79577;BME280;69045;48.136;11.386;2023-04-24T09:32:19;94592.84;;;15.48;51.60
79577;BME280;69045;48.136;11.386;2023-04-24T09:35:05;94593.91;;;15.62;51.99
79577;BME280;69045;48.136;11.386;2023-04-24T09:37:35;94593.91;;;15.72;51.13
79577;BME280;69045;48.136;11.386;2023-04-24T09:40:12;94594.94;;;15.87;51.64
79577;BME280;69045;48.136;11.386;2023-04-24T09:42:44;94597.81;;;16.05;51.06
79577;BME280;69045;48.136;11.386;2023-04-24T09:45:13;94593.06;;;16.13;50.37
79577;BME280;69045;48.136;11.386;2023-04-24T09:47:43;94589.84;;;16.26;50.49
79577;BME280;69045;48.136;11.386;2023-04-24T09:50:13;94590.06;;;16.34;50.71
79577;BME280;69045;48.136;11.386;2023-04-24T09:52:56;94585.78;;;16.49;50.76
79577;BME280;69045;48.136;11.386;2023-04-24T09:55:25;94583.31;;;16.68;50.45
79577;BME280;69045;48.136;11.386;2023-04-24T09:57:56;94581.19;;;16.75;49.65
79577;BME280;69045;48.136;11.386;2023-04-24T10:00:27;94589.81;;;16.90;50.34
79577;BME280;69045;48.136;11.386;2023-04-24T10:02:59;94582.31;;;17.08;51.07
79577;BME280;69045;48.136;11.386;2023-04-24T10:05:29;94579.25;;;17.30;49.74
79577;BME280;69045;48.136;11.386;2023-04-24T10:08:01;94585.13;;;17.56;48.49
79577;BME280;69045;48.136;11.386;2023-04-24T10:10:31;94582.63;;;17.69;48.01
79577;BME280;69045;48.136;11.386;2023-04-24T10:12:59;94572.25;;;17.73;49.65
79577;BME280;69045;48.136;11.386;2023-04-24T10:15:28;94572.63;;;17.90;47.87
79577;BME280;69045;48.136;11.386;2023-04-24T10:17:59;94569.72;;;17.92;47.80
79577;BME280;69045;48.136;11.386;2023-04-24T10:20:29;94567.88;;;17.87;48.05
79577;BME280;69045;48.136;11.386;2023-04-24T10:23:00;94568.91;;;17.91;48.14
79577;BME280;69045;48.136;11.386;2023-04-24T10:25:30;94569.00;;;17.81;48.90
79577;BME280;69045;48.136;11.386;2023-04-24T10:28:00;94566.47;;;17.71;47.77
79577;BME280;69045;48.136;11.386;2023-04-24T10:30:30;94578.25;;;17.55;48.05
79577;BME280;69045;48.136;11.386;2023-04-24T10:33:03;94577.25;;;17.45;48.78
79577;BME280;69045;48.136;11.386;2023-04-24T10:35:37;94586.59;;;17.38;49.13
79577;BME280;69045;48.136;11.386;2023-04-24T10:38:12;94628.44;;;17.36;50.03
79577;BME280;69045;48.136;11.386;2023-04-24T10:40:42;94642.16;;;17.43;51.85
79577;BME280;69045;48.136;11.386;2023-04-24T10:43:16;94643.28;;;17.32;51.25
79577;BME280;69045;48.136;11.386;2023-04-24T10:46:01;94636.03;;;17.08;51.19
79577;BME280;69045;48.136;11.386;2023-04-24T10:48:32;94624.28;;;16.80;51.02
79577;BME280;69045;48.136;11.386;2023-04-24T10:51:01;94628.66;;;16.35;51.70
79577;BME280;69045;48.136;11.386;2023-04-24T10:53:30;94613.13;;;16.14;53.28
79577;BME280;69045;48.136;11.386;2023-04-24T10:56:03;94613.69;;;16.05;53.16
79577;BME280;69045;48.136;11.386;2023-04-24T10:58:39;94619.75;;;16.01;53.09
79577;BME280;69045;48.136;11.386;2023-04-24T11:01:24;94612.28;;;16.18;54.31
79577;BME280;69045;48.136;11.386;2023-04-24T11:03:57;94622.03;;;16.38;53.00
79577;BME280;69045;48.136;11.386;2023-04-24T11:06:29;94607.06;;;16.78;54.17
79577;BME280;69045;48.136;11.386;2023-04-24T11:09:03;94615.53;;;17.24;52.02
79577;BME280;69045;48.136;11.386;2023-04-24T11:11:34;94625.28;;;17.68;52.03
79577;BME280;69045;48.136;11.386;2023-04-24T11:14:05;94619.78;;;18.22;50.26
79577;BME280;69045;48.136;11.386;2023-04-24T11:16:37;94617.38;;;18.69;49.17
79577;BME280;69045;48.136;11.386;2023-04-24T11:19:09;94616.34;;;19.07;48.71
79577;BME280;69045;48.136;11.386;2023-04-24T11:21:43;94608.94;;;19.42;48.36
79577;BME280;69045;48.136;11.386;2023-04-24T11:24:27;94607.56;;;19.63;47.95
79577;BME280;69045;48.136;11.386;2023-04-24T11:27:00;94611.28;;;19.81;46.85
79577;BME280;69045;48.136;11.386;2023-04-24T11:29:41;94610.28;;;19.91;45.93
79577;BME280;69045;48.136;11.386;2023-04-24T11:32:15;94611.22;;;20.00;45.78
79577;BME280;69045;48.136;11.386;2023-04-24T11:34:49;94615.47;;;20.15;44.60
79577;BME280;69045;48.136;11.386;2023-04-24T11:37:17;94611.03;;;20.24;42.94
79577;BME280;69045;48.136;11.386;2023-04-24T11:39:46;94610.47;;;20.27;44.88
79577;BME280;69045;48.136;11.386;2023-04-24T11:42:15;94608.59;;;20.28;45.67
79577;BME280;69045;48.136;11.386;2023-04-24T11:44:43;94618.84;;;20.34;44.69
79577;BME280;69045;48.136;11.386;2023-04-24T11:47:15;94623.44;;;20.15;42.86
79577;BME280;69045;48.136;11.386;2023-04-24T11:49:44;94615.47;;;20.15;43.67
79577;BME280;69045;48.136;11.386;2023-04-24T11:52:17;94611.56;;;20.26;43.27
79577;BME280;69045;48.136;11.386;2023-04-24T11:54:50;94607.44;;;20.48;42.74
79577;BME280;69045;48.136;11.386;2023-04-24T11:57:20;94607.94;;;20.50;41.97
79577;BME280;69045;48.136;11.386;2023-04-24T11:59:49;94609.16;;;20.38;43.04
79577;BME280;69045;48.136;11.386;2023-04-24T12:02:22;94605.06;;;20.32;41.47
79577;BME280;69045;48.136;11.386;2023-04-24T12:04:52;94604.00;;;20.47;42.87
79577;BME280;69045;48.136;11.386;2023-04-24T12:07:23;94600.72;;;20.50;40.46
79577;BME280;69045;48.136;11.386;2023-04-24T12:09:57;94607.63;;;20.51;41.07
79577;BME280;69045;48.136;11.386;2023-04-24T12:12:28;94605.47;;;20.67;41.19
79577;BME280;69045;48.136;11.386;2023-04-24T12:14:58;94588.06;;;20.97;41.69
79577;BME280;69045;48.136;11.386;2023-04-24T12:17:30;94597.38;;;21.22;40.73
79577;BME280;69045;48.136;11.386;2023-04-24T12:20:00;94578.75;;;21.44;39.61
79577;BME280;69045;48.136;11.386;2023-04-24T12:22:45;94579.00;;;21.57;38.54
79577;BME280;69045;48.136;11.386;2023-04-24T12:25:14;94584.69;;;21.64;39.35
79577;BME280;69045;48.136;11.386;2023-04-24T12:27:44;94588.00;;;21.92;37.46
79577;BME280;69045;48.136;11.386;2023-04-24T12:30:15;94577.91;;;22.11;37.28
79577;BME280;69045;48.136;11.386;2023-04-24T12:32:46;94585.19;;;22.28;36.93
79577;BME280;69045;48.136;11.386;2023-04-24T12:35:23;94579.34;;;22.17;35.47
79577;BME280;69045;48.136;11.386;2023-04-24T12:37:55;94594.72;;;22.12;37.28
79577;BME280;69045;48.136;11.386;2023-04-24T12:40:25;94586.06;;;21.84;35.07
79577;BME280;69045;48.136;11.386;2023-04-24T12:42:57;94590.38;;;21.71;35.18
79577;BME280;69045;48.136;11.386;2023-04-24T12:45:26;94587.59;;;21.53;34.96
79577;BME280;69045;48.136;11.386;2023-04-24T12:47:55;94584.13;;;21.53;35.71
79577;BME280;69045;48.136;11.386;2023-04-24T12:50:24;94597.97;;;21.55;33.66
79577;BME280;69045;48.136;11.386;2023-04-24T12:52:53;94592.19;;;21.39;34.31
79577;BME280;69045;48.136;11.386;2023-04-24T12:55:22;94591.06;;;21.18;34.03
79577;BME280;69045;48.136;11.386;2023-04-24T12:57:51;94593.28;;;21.02;34.96
79577;BME280;69045;48.136;11.386;2023-04-24T13:00:22;94593.88;;;20.99;36.05
79577;BME280;69045;48.136;11.386;2023-04-24T13:02:51;94591.56;;;21.06;34.89
79577;BME280;69045;48.136;11.386;2023-04-24T13:05:20;94604.34;;;20.95;37.09
79577;BME280;69045;48.136;11.386;2023-04-24T13:07:51;94610.34;;;21.01;37.39